createdAt,value
2019-04-07T00:01:52.640Z,127.55
2019-04-07T00:04:22.543Z,115.50
2019-04-07T00:06:52.279Z,110.48
2019-04-07T00:09:22.268Z,109.95
2019-04-07T00:11:51.972Z,109.87
2019-04-07T00:14:21.323Z,99.50
2019-04-07T00:16:50.897Z,106.78
2019-04-07T00:19:21.904Z,95.77
2019-04-07T00:21:52.307Z,115.00
2019-04-07T00:24:21.888Z,115.50
2019-04-07T00:26:52.555Z,122.13
2019-04-07T00:29:26.493Z,127.20
2019-04-07T00:31:56.445Z,131.07
2019-04-07T00:34:25.901Z,124.90
2019-04-07T00:36:55.713Z,130.25
2019-04-07T00:39:28.100Z,131.97
2019-04-07T00:41:58.246Z,123.58
2019-04-07T00:44:27.888Z,126.75
2019-04-07T00:47:03.096Z,125.18
2019-04-07T00:49:32.616Z,121.87
2019-04-07T00:52:03.887Z,117.25
2019-04-07T00:54:33.297Z,118.87
2019-04-07T00:57:02.807Z,108.52
2019-04-07T00:59:32.143Z,120.82
2019-04-07T01:02:01.506Z,118.17
2019-04-07T01:04:30.819Z,127.80
2019-04-07T01:07:00.263Z,122.10
2019-04-07T01:09:37.714Z,124.83
2019-04-07T01:12:23.535Z,116.08
2019-04-07T01:14:53.355Z,111.22
2019-04-07T01:17:22.788Z,112.12
2019-04-07T01:19:52.104Z,113.80
2019-04-07T01:22:21.889Z,106.95
2019-04-07T01:24:51.789Z,113.83
2019-04-07T01:27:21.155Z,112.57
2019-04-07T01:29:51.696Z,111.90
2019-04-07T01:32:21.310Z,113.33
2019-04-07T01:34:50.722Z,111.00
2019-04-07T01:37:20.051Z,102.92
2019-04-07T01:39:49.407Z,100.96
2019-04-07T01:42:26.514Z,105.35
2019-04-07T01:45:12.733Z,99.32
2019-04-07T01:47:44.273Z,94.07
2019-04-07T01:50:27.391Z,99.15
2019-04-07T01:53:01.257Z,98.60
2019-04-07T01:55:32.174Z,96.22
2019-04-07T02:00:55.443Z,89.55
2019-04-07T02:03:29.111Z,90.38
2019-04-07T02:06:06.053Z,89.22
2019-04-07T02:08:54.978Z,92.45
2019-04-07T02:11:41.838Z,89.50
2019-04-07T02:14:15.911Z,91.00
2019-04-07T02:16:49.996Z,89.45
2019-04-07T02:19:21.618Z,82.25
2019-04-07T02:21:55.759Z,89.28
2019-04-07T02:24:43.212Z,84.58
2019-04-07T02:27:15.271Z,89.22
2019-04-07T02:29:50.062Z,88.82
2019-04-07T02:32:37.898Z,88.52
2019-04-07T02:35:12.896Z,88.12
2019-04-07T02:37:58.923Z,83.25
2019-04-07T02:40:33.099Z,83.33
2019-04-07T02:46:48.832Z,77.37
2019-04-07T02:49:26.306Z,82.37
2019-04-07T02:51:57.477Z,88.20
2019-04-07T02:54:44.552Z,89.85
2019-04-07T02:57:18.944Z,93.87
2019-04-07T02:59:56.048Z,88.95
2019-04-07T03:02:43.627Z,85.50
2019-04-07T03:05:15.553Z,84.72
2019-04-07T03:07:47.508Z,87.60
2019-04-07T03:10:25.117Z,91.45
2019-04-07T03:12:58.696Z,94.37
2019-04-07T03:15:38.706Z,89.97
2019-04-07T03:18:27.017Z,90.17
2019-04-07T03:21:04.018Z,93.03
2019-04-07T03:23:38.366Z,92.88
2019-04-07T03:26:27.655Z,93.47
2019-04-07T03:29:14.612Z,90.75
2019-04-07T03:31:48.048Z,100.92
2019-04-07T03:34:18.977Z,101.18
2019-04-07T03:37:26.969Z,101.60
2019-04-07T03:39:30.061Z,94.50
2019-04-07T03:42:17.879Z,93.47
2019-04-07T03:44:55.036Z,87.40
2019-04-07T03:47:26.105Z,97.47
2019-04-07T03:50:00.122Z,80.40
2019-04-07T03:52:43.226Z,86.05
2019-04-07T03:55:15.257Z,81.25
2019-04-07T03:58:03.614Z,97.17
2019-04-07T04:01:02.657Z,91.00
2019-04-07T04:03:42.266Z,99.52
2019-04-07T04:06:32.172Z,91.15
2019-04-07T04:09:08.899Z,86.37
2019-04-07T04:11:40.637Z,90.62
2019-04-07T04:14:11.701Z,89.70
2019-04-07T04:16:42.692Z,98.65
2019-04-07T04:19:12.919Z,89.70
2019-04-07T04:21:42.343Z,92.53
2019-04-07T04:24:12.277Z,92.50
2019-04-07T04:26:42.050Z,110.20
2019-04-07T04:29:12.274Z,88.43
2019-04-07T04:31:42.244Z,103.60
2019-04-07T04:34:12.014Z,102.33
2019-04-07T04:36:41.488Z,104.53
2019-04-07T04:39:10.889Z,97.85
2019-04-07T04:41:40.746Z,90.38
2019-04-07T04:44:14.210Z,101.50
2019-04-07T04:46:43.767Z,102.70
2019-04-07T04:49:13.552Z,103.62
2019-04-07T04:51:42.952Z,108.67
2019-04-07T04:54:12.581Z,105.47
2019-04-07T04:56:42.408Z,103.53
2019-04-07T04:59:12.926Z,95.50
2019-04-07T05:01:42.335Z,103.07
2019-04-07T05:04:12.589Z,105.40
2019-04-07T05:06:42.434Z,117.50
2019-04-07T05:09:12.309Z,105.35
2019-04-07T05:11:41.847Z,95.95
2019-04-07T05:14:11.427Z,79.12
2019-04-07T05:16:40.953Z,74.70
2019-04-07T05:19:10.982Z,79.60
2019-04-07T05:21:40.482Z,100.38
2019-04-07T05:24:10.229Z,91.35
2019-04-07T05:26:39.710Z,95.53
2019-04-07T05:29:10.303Z,104.40
2019-04-07T05:31:40.140Z,100.12
2019-04-07T05:34:10.789Z,87.78
2019-04-07T05:36:40.818Z,90.38
2019-04-07T05:39:10.297Z,103.32
2019-04-07T05:41:40.009Z,105.27
2019-04-07T05:44:09.378Z,88.62
2019-04-07T05:46:40.156Z,81.28
2019-04-07T05:49:09.694Z,95.03
2019-04-07T05:51:39.349Z,88.27
2019-04-07T05:54:11.989Z,71.55
2019-04-07T05:56:41.319Z,71.35
2019-04-07T05:59:13.078Z,65.28
2019-04-07T06:01:42.262Z,53.60
2019-04-07T06:04:17.509Z,55.95
2019-04-07T06:06:42.651Z,57.08
2019-04-07T06:09:11.944Z,64.20
2019-04-07T06:11:41.301Z,55.90
2019-04-07T06:14:11.538Z,49.48
2019-04-07T06:16:41.692Z,52.98
2019-04-07T06:19:11.578Z,49.53
2019-04-07T06:21:41.648Z,50.30
2019-04-07T06:24:11.332Z,47.90
2019-04-07T06:26:42.868Z,49.08
2019-04-07T06:29:11.855Z,48.25
2019-04-07T06:31:41.496Z,46.18
2019-04-07T06:34:11.989Z,48.90
2019-04-07T06:39:10.002Z,45.95
2019-04-07T06:41:39.348Z,45.35
2019-04-07T06:44:13.333Z,50.38
2019-04-07T06:46:41.334Z,49.42
2019-04-07T06:49:21.943Z,45.52
2019-04-07T06:52:02.873Z,52.73
2019-04-07T06:54:43.835Z,51.28
2019-04-07T06:57:26.673Z,47.08
2019-04-07T06:59:57.778Z,41.70
2019-04-07T07:02:29.498Z,44.05
2019-04-07T07:05:04.226Z,49.05
2019-04-07T07:07:49.985Z,41.40
2019-04-07T07:10:40.124Z,46.28
2019-04-07T07:13:32.300Z,48.15
2019-04-07T07:16:00.481Z,43.87
2019-04-07T07:18:48.693Z,43.70
2019-04-07T07:21:20.171Z,40.67
2019-04-07T07:23:50.035Z,41.33
2019-04-07T07:26:21.472Z,39.07
2019-04-07T07:28:51.044Z,36.53
2019-04-07T07:31:23.868Z,36.63
2019-04-07T07:33:51.492Z,36.25
2019-04-07T07:36:22.646Z,36.33
2019-04-07T07:38:58.865Z,38.10
2019-04-07T07:43:53.573Z,31.68
2019-04-07T07:46:23.837Z,39.45
2019-04-07T07:48:58.936Z,34.08
2019-04-07T07:51:25.757Z,37.42
2019-04-07T07:53:58.653Z,37.33
2019-04-07T07:56:26.860Z,34.40
2019-04-07T07:58:59.882Z,35.85
2019-04-07T08:01:28.369Z,33.90
2019-04-07T08:03:58.704Z,37.13
2019-04-07T08:06:28.200Z,36.70
2019-04-07T08:09:09.993Z,32.83
2019-04-07T08:11:32.206Z,32.08
2019-04-07T08:13:59.606Z,34.85
2019-04-07T08:16:31.239Z,31.95
2019-04-07T08:19:00.748Z,35.35
2019-04-07T08:21:32.653Z,32.00
2019-04-07T08:24:02.566Z,30.33
2019-04-07T08:26:32.078Z,28.87
2019-04-07T08:29:05.614Z,29.05
2019-04-07T08:31:33.701Z,29.92
2019-04-07T08:34:03.761Z,28.93
2019-04-07T08:36:33.835Z,30.37
2019-04-07T08:39:06.121Z,30.50
2019-04-07T08:41:39.169Z,29.63
2019-04-07T08:46:40.932Z,34.00
2019-04-07T08:49:07.640Z,30.35
2019-04-07T08:51:38.038Z,29.40
2019-04-07T08:54:07.376Z,29.00
2019-04-07T08:56:37.612Z,31.23
2019-04-07T08:59:16.191Z,27.93
2019-04-07T09:01:43.543Z,32.08
2019-04-07T09:04:15.140Z,31.85
2019-04-07T09:06:44.890Z,27.58
2019-04-07T09:09:14.238Z,25.70
2019-04-07T09:11:43.659Z,24.57
2019-04-07T09:14:15.990Z,25.35
2019-04-07T09:17:04.678Z,26.95
2019-04-07T09:19:47.562Z,23.22
2019-04-07T09:22:23.178Z,24.18
2019-04-07T09:25:06.358Z,24.23
2019-04-07T09:27:48.618Z,23.92
2019-04-07T09:30:39.062Z,22.93
2019-04-07T09:33:26.992Z,24.63
2019-04-07T09:36:15.855Z,25.35
2019-04-07T09:39:03.916Z,21.90
2019-04-07T09:41:54.714Z,23.00
2019-04-07T09:44:24.095Z,21.37
2019-04-07T09:47:07.192Z,21.82
2019-04-07T09:49:57.560Z,21.05
2019-04-07T09:52:29.391Z,21.87
2019-04-07T09:55:01.051Z,20.43
2019-04-07T09:57:37.531Z,20.80
2019-04-07T10:00:25.529Z,22.37
2019-04-07T10:02:56.523Z,19.00
2019-04-07T10:05:33.561Z,17.82
2019-04-07T10:08:20.920Z,19.25
2019-04-07T10:10:58.323Z,16.48
2019-04-07T10:13:38.689Z,16.77
2019-04-07T10:16:22.198Z,18.77
2019-04-07T10:19:08.745Z,18.50
2019-04-07T10:21:52.705Z,11.45
2019-04-07T10:24:24.681Z,9.97
2019-04-07T10:26:58.831Z,13.15
2019-04-07T10:29:33.067Z,12.15
2019-04-07T10:32:10.255Z,9.73
2019-04-07T10:34:44.964Z,12.10
2019-04-07T10:37:21.917Z,11.68
2019-04-07T10:39:58.190Z,10.58
2019-04-07T10:42:35.848Z,11.33
2019-04-07T10:45:17.471Z,11.57
2019-04-07T10:47:48.730Z,9.10
2019-04-07T10:50:35.364Z,11.40
2019-04-07T10:53:11.448Z,10.10
2019-04-07T10:55:43.093Z,13.18
2019-04-07T10:58:14.135Z,12.23
2019-04-07T11:00:53.936Z,10.70
2019-04-07T11:03:28.278Z,11.25
2019-04-07T11:06:14.950Z,9.00
2019-04-07T11:08:51.888Z,9.98
2019-04-07T11:11:32.467Z,10.05
2019-04-07T11:14:06.843Z,13.33
2019-04-07T11:16:53.673Z,11.00
2019-04-07T11:19:40.586Z,14.63
2019-04-07T11:22:28.507Z,10.43
2019-04-07T11:25:16.980Z,10.85
2019-04-07T11:28:06.750Z,10.60
2019-04-07T11:30:38.703Z,11.40
2019-04-07T11:33:26.957Z,10.30
2019-04-07T11:36:10.628Z,9.75
2019-04-07T11:38:41.943Z,9.33
2019-04-07T11:41:26.140Z,9.93
2019-04-07T11:44:02.011Z,11.50
2019-04-07T11:46:33.109Z,8.83
2019-04-07T11:49:23.023Z,9.18
2019-04-07T11:51:55.543Z,10.40
2019-04-07T11:54:26.954Z,8.73
2019-04-07T11:57:33.540Z,12.00
2019-04-07T11:59:59.975Z,10.68
2019-04-07T12:02:33.553Z,10.70
2019-04-07T12:05:10.395Z,9.70
2019-04-07T12:07:58.762Z,8.35
2019-04-07T12:13:52.531Z,14.63
2019-04-07T12:16:39.104Z,11.48
2019-04-07T12:19:11.322Z,13.32
2019-04-07T12:22:03.502Z,13.25
2019-04-07T12:24:38.129Z,12.30
2019-04-07T12:27:25.920Z,18.80
2019-04-07T12:30:02.798Z,14.40
2019-04-07T12:32:50.847Z,13.08
2019-04-07T12:35:38.208Z,17.35
2019-04-07T12:38:26.501Z,13.30
2019-04-07T12:41:15.079Z,12.98
2019-04-07T12:43:49.569Z,13.37
2019-04-07T12:46:30.039Z,14.85
2019-04-07T12:51:53.355Z,12.80
2019-04-07T12:54:24.896Z,12.78
2019-04-07T12:56:57.733Z,12.28
2019-04-07T12:59:41.076Z,12.25
2019-04-07T13:02:17.939Z,10.38
2019-04-07T13:04:48.181Z,11.05
2019-04-07T13:07:37.796Z,12.47
2019-04-07T13:10:19.432Z,12.83
2019-04-07T13:13:06.915Z,14.00
2019-04-07T13:15:38.867Z,12.93
2019-04-07T13:18:16.597Z,13.88
2019-04-07T13:20:50.263Z,16.07
2019-04-07T13:23:26.598Z,17.05
2019-04-07T13:26:26.788Z,12.53
2019-04-07T13:28:55.371Z,11.47
2019-04-07T13:31:30.319Z,16.93
2019-04-07T13:34:18.390Z,13.08
2019-04-07T13:36:55.608Z,19.77
2019-04-07T13:39:42.897Z,19.02
2019-04-07T13:42:23.106Z,14.30
2019-04-07T13:44:55.849Z,12.98
2019-04-07T13:50:16.368Z,14.68
2019-04-07T13:53:01.407Z,15.18
2019-04-07T13:55:41.139Z,14.53
2019-04-07T13:58:26.108Z,16.27
2019-04-07T14:00:57.399Z,15.90
2019-04-07T14:03:40.676Z,19.65
2019-04-07T14:06:17.556Z,15.88
2019-04-07T14:08:51.699Z,14.85
2019-04-07T14:11:31.514Z,16.12
2019-04-07T14:14:05.650Z,16.65
2019-04-07T14:16:49.763Z,15.55
2019-04-07T14:19:29.758Z,15.93
2019-04-07T14:22:00.727Z,16.97
2019-04-07T14:27:12.382Z,17.05
2019-04-07T14:29:50.207Z,21.40
2019-04-07T14:32:31.169Z,21.35
2019-04-07T14:35:08.352Z,19.05
2019-04-07T14:37:42.925Z,19.73
2019-04-07T14:40:26.295Z,17.70
2019-04-07T14:43:13.673Z,17.92
2019-04-07T14:46:05.372Z,14.87
2019-04-07T14:48:37.564Z,16.65
2019-04-07T14:51:10.086Z,15.38
2019-04-07T14:53:54.030Z,14.78
2019-04-07T14:56:37.882Z,16.93
2019-04-07T14:59:29.830Z,14.18
2019-04-07T15:02:02.193Z,13.95
2019-04-07T15:04:40.813Z,15.45
2019-04-07T15:07:32.457Z,19.62
2019-04-07T15:10:03.507Z,17.55
2019-04-07T15:12:34.937Z,17.15
2019-04-07T15:15:09.938Z,21.87
2019-04-07T15:17:37.843Z,15.40
2019-04-07T15:20:11.627Z,18.10
2019-04-07T15:22:40.996Z,16.52
2019-04-07T15:25:11.894Z,24.20
2019-04-07T15:30:15.340Z,17.25
2019-04-07T15:32:42.769Z,17.00
2019-04-07T15:35:14.331Z,16.73
2019-04-07T15:37:43.196Z,24.00
2019-04-07T15:40:12.676Z,18.73
2019-04-07T15:42:45.984Z,19.90
2019-04-07T15:45:13.399Z,15.65
2019-04-07T15:47:42.799Z,23.30
2019-04-07T15:50:12.270Z,19.48
2019-04-07T15:52:44.299Z,14.33
2019-04-07T15:55:13.527Z,19.80
2019-04-07T15:57:43.940Z,20.20
2019-04-07T16:00:16.748Z,21.80
2019-04-07T16:02:49.263Z,17.32
2019-04-07T16:07:48.074Z,16.17
2019-04-07T16:10:21.248Z,17.92
2019-04-07T16:12:52.230Z,17.25
2019-04-07T16:15:21.104Z,18.20
2019-04-07T16:17:50.565Z,16.73
2019-04-07T16:20:24.690Z,22.10
2019-04-07T16:22:53.828Z,19.17
2019-04-07T16:25:27.524Z,18.77
2019-04-07T16:30:23.411Z,18.05
2019-04-07T16:32:53.658Z,19.50
2019-04-07T16:35:23.054Z,19.70
2019-04-07T16:37:53.131Z,19.80
2019-04-07T16:40:22.738Z,18.00
2019-04-07T16:43:04.402Z,17.17
2019-04-07T16:45:23.146Z,17.15
2019-04-07T16:47:53.052Z,20.02
2019-04-07T16:50:22.986Z,17.80
2019-04-07T16:52:53.224Z,19.73
2019-04-07T16:55:37.237Z,21.10
2019-04-07T16:58:08.491Z,19.37
2019-04-07T17:00:38.608Z,18.27
2019-04-07T17:03:09.900Z,17.40
2019-04-07T17:05:39.805Z,23.20
2019-04-07T17:08:09.139Z,19.42
2019-04-07T17:10:39.156Z,21.77
2019-04-07T17:13:16.955Z,20.50
2019-04-07T17:15:41.842Z,16.77
2019-04-07T17:18:30.845Z,17.70
2019-04-07T17:21:00.316Z,17.82
2019-04-07T17:23:29.636Z,18.10
2019-04-07T17:26:12.034Z,18.90
2019-04-07T17:28:44.654Z,22.02
2019-04-07T17:33:41.555Z,20.32
2019-04-07T17:36:15.270Z,18.55
2019-04-07T17:38:44.294Z,18.77
2019-04-07T17:41:15.578Z,16.82
2019-04-07T17:44:02.706Z,19.77
2019-04-07T17:46:45.960Z,18.65
2019-04-07T17:49:18.011Z,22.25
2019-04-07T17:51:55.080Z,17.90
2019-04-07T17:54:38.550Z,21.87
2019-04-07T17:57:24.667Z,17.48
2019-04-07T18:00:05.787Z,19.62
2019-04-07T18:02:38.594Z,17.27
2019-04-07T18:05:10.557Z,19.27
2019-04-07T18:07:58.557Z,24.67
2019-04-07T18:10:35.225Z,19.77
2019-04-07T18:13:16.622Z,22.40
2019-04-07T18:15:59.955Z,23.70
2019-04-07T18:18:31.562Z,21.52
2019-04-07T18:21:07.202Z,20.57
2019-04-07T18:23:51.968Z,23.00
2019-04-07T18:26:35.466Z,22.80
2019-04-07T18:29:10.364Z,22.58
2019-04-07T18:31:42.277Z,21.10
2019-04-07T18:34:15.659Z,24.57
2019-04-07T18:37:06.089Z,22.50
2019-04-07T18:39:38.477Z,22.02
2019-04-07T18:42:14.180Z,19.48
2019-04-07T18:45:01.715Z,22.05
2019-04-07T18:47:39.474Z,22.87
2019-04-07T18:50:17.126Z,22.53
2019-04-07T18:52:53.338Z,24.30
2019-04-07T18:55:26.176Z,23.35
2019-04-07T18:57:57.211Z,23.25
2019-04-07T19:01:10.302Z,23.02
2019-04-07T19:03:53.713Z,20.65
2019-04-07T19:06:27.127Z,22.90
2019-04-07T19:09:04.776Z,22.32
2019-04-07T19:11:42.859Z,26.35
2019-04-07T19:14:36.436Z,25.30
2019-04-07T19:17:05.626Z,24.43
2019-04-07T19:19:36.732Z,25.75
2019-04-07T19:22:10.994Z,29.42
2019-04-07T19:24:44.719Z,24.27
2019-04-07T19:27:33.182Z,31.50
2019-04-07T19:30:06.942Z,22.40
2019-04-07T19:32:40.782Z,24.85
2019-04-07T19:35:15.304Z,24.70
2019-04-07T19:38:01.417Z,25.60
2019-04-07T19:40:32.416Z,20.32
2019-04-07T19:43:19.530Z,22.62
2019-04-07T19:46:06.981Z,20.45
2019-04-07T19:48:56.584Z,22.77
2019-04-07T19:51:46.950Z,23.80
2019-04-07T19:54:33.114Z,29.25
2019-04-07T19:57:22.210Z,24.18
2019-04-07T19:59:53.146Z,28.10
2019-04-07T20:02:24.160Z,28.38
2019-04-07T20:04:59.244Z,24.30
2019-04-07T20:07:31.415Z,25.37
2019-04-07T20:10:03.088Z,28.60
2019-04-07T20:12:41.272Z,24.98
2019-04-07T20:15:19.982Z,27.58
2019-04-07T20:17:56.801Z,28.80
2019-04-07T20:20:53.540Z,27.10
2019-04-07T20:23:27.746Z,24.50
2019-04-07T20:26:03.699Z,22.58
2019-04-07T20:28:44.970Z,27.37
2019-04-07T20:31:19.424Z,27.20
2019-04-07T20:33:51.757Z,23.02
2019-04-07T20:36:25.005Z,25.90
2019-04-07T20:39:01.940Z,22.58
2019-04-07T20:41:34.531Z,26.60
2019-04-07T20:44:11.548Z,25.50
2019-04-07T20:47:00.449Z,26.77
2019-04-07T20:49:34.243Z,26.57
2019-04-07T20:52:08.258Z,26.73
2019-04-07T20:54:56.297Z,24.43
2019-04-07T20:57:46.289Z,23.07
2019-04-07T21:00:23.687Z,26.17
2019-04-07T21:05:44.308Z,29.67
2019-04-07T21:08:15.397Z,24.67
2019-04-07T21:13:19.309Z,21.77
2019-04-07T21:15:51.415Z,26.60
2019-04-07T21:21:17.098Z,24.32
2019-04-07T21:23:57.891Z,23.27
2019-04-07T21:26:30.912Z,27.82
2019-04-07T21:29:10.804Z,23.83
2019-04-07T21:31:44.102Z,26.73
2019-04-07T21:34:33.348Z,22.95
2019-04-07T21:37:04.736Z,26.90
2019-04-07T21:39:41.884Z,28.92
2019-04-07T21:42:16.253Z,35.70
2019-04-07T21:44:55.280Z,26.97
2019-04-07T21:47:29.274Z,28.07
2019-04-07T21:50:00.339Z,30.30
2019-04-07T21:52:46.101Z,32.50
2019-04-07T21:55:20.013Z,30.60
2019-04-07T21:57:57.004Z,28.70
2019-04-07T22:00:41.332Z,32.80
2019-04-07T22:03:16.459Z,31.25
2019-04-07T22:05:49.444Z,30.90
2019-04-07T22:08:21.218Z,32.98
2019-04-07T22:10:52.254Z,33.20
2019-04-07T22:13:21.741Z,30.00
2019-04-07T22:15:56.275Z,31.80
2019-04-07T22:18:23.662Z,31.17
2019-04-07T22:20:54.809Z,27.97
2019-04-07T22:23:24.908Z,31.17
2019-04-07T22:25:54.763Z,34.00
2019-04-07T22:28:27.747Z,43.98
2019-04-07T22:30:55.943Z,34.75
2019-04-07T22:33:26.866Z,26.50
2019-04-07T22:35:56.293Z,32.60
2019-04-07T22:38:27.356Z,38.60
2019-04-07T22:40:56.845Z,39.63
2019-04-07T22:43:26.217Z,34.63
2019-04-07T22:46:06.893Z,34.67
2019-04-07T22:50:56.806Z,42.03
2019-04-07T22:53:29.587Z,39.42
2019-04-07T22:55:57.138Z,37.48
2019-04-07T22:58:26.438Z,42.45
2019-04-07T23:00:55.766Z,45.90
2019-04-07T23:03:25.972Z,44.48
2019-04-07T23:05:55.547Z,42.87
2019-04-07T23:08:24.911Z,42.65
2019-04-07T23:10:54.334Z,42.35
2019-04-07T23:13:24.604Z,46.87
2019-04-07T23:16:06.397Z,45.30
2019-04-07T23:18:24.915Z,48.83
2019-04-07T23:20:54.289Z,42.93
2019-04-07T23:23:24.127Z,44.72
2019-04-07T23:25:54.150Z,44.05
2019-04-07T23:28:25.019Z,45.83
2019-04-07T23:30:54.969Z,47.38
2019-04-07T23:33:25.513Z,43.35
2019-04-07T23:35:55.431Z,41.33
2019-04-07T23:38:24.972Z,39.25
2019-04-07T23:40:55.622Z,40.10
2019-04-07T23:43:25.306Z,42.10
2019-04-07T23:45:55.938Z,43.38
2019-04-07T23:48:26.335Z,51.20
2019-04-07T23:50:56.145Z,47.63
2019-04-07T23:54:02.286Z,45.18
2019-04-07T23:56:31.752Z,55.38
2019-04-07T23:59:01.074Z,54.18
